createdAt,value
2024-05-09T00:00:22.058Z,100325.19
2024-05-09T00:02:53.136Z,100327.78
2024-05-09T00:05:19.985Z,100322.59
2024-05-09T00:07:46.745Z,100325.97
2024-05-09T00:10:22.344Z,100322.47
2024-05-09T00:12:55.776Z,100321.59
2024-05-09T00:15:22.465Z,100318.13
2024-05-09T00:17:49.457Z,100321.56
2024-05-09T00:20:20.643Z,100314.59
2024-05-09T00:22:54.555Z,100310.25
2024-05-09T00:25:21.242Z,100309.41
2024-05-09T00:27:47.880Z,100309.34
2024-05-09T00:30:21.469Z,100298.06
2024-05-09T00:32:55.251Z,100311.09
2024-05-09T00:35:22.215Z,100302.41
2024-05-09T00:37:48.999Z,100298.13
2024-05-09T00:40:22.974Z,100307.53
2024-05-09T00:42:57.828Z,100312.69
2024-05-09T00:45:24.452Z,100313.50
2024-05-09T00:47:51.408Z,100304.84
2024-05-09T00:50:22.869Z,100301.41
2024-05-09T00:52:56.796Z,100295.31
2024-05-09T00:55:24.152Z,100301.34
2024-05-09T00:57:51.486Z,100299.59
2024-05-09T01:00:26.715Z,100289.25
2024-05-09T01:02:59.129Z,100293.50
2024-05-09T01:05:25.911Z,100291.72
2024-05-09T01:07:52.601Z,100293.44
2024-05-09T01:10:27.579Z,100282.16
2024-05-09T01:12:59.088Z,100276.94
2024-05-09T01:15:25.743Z,100275.13
2024-05-09T01:17:55.714Z,100268.25
2024-05-09T01:20:31.832Z,100268.91
2024-05-09T01:23:07.688Z,100260.31
2024-05-09T01:25:35.443Z,100249.06
2024-05-09T01:28:02.200Z,100254.22
2024-05-09T01:30:34.614Z,100258.47
2024-05-09T01:33:04.693Z,100249.81
2024-05-09T01:35:32.420Z,100245.56
2024-05-09T01:37:59.231Z,100248.16
2024-05-09T01:40:36.139Z,100250.59
2024-05-09T01:43:05.879Z,100241.19
2024-05-09T01:45:33.068Z,100240.25
2024-05-09T01:48:00.124Z,100247.03
2024-05-09T01:50:36.915Z,100250.53
2024-05-09T01:53:07.303Z,100242.81
2024-05-09T01:55:34.023Z,100239.22
2024-05-09T01:58:00.700Z,100234.16
2024-05-09T02:00:37.801Z,100241.00
2024-05-09T02:03:15.005Z,100244.41
2024-05-09T02:05:47.569Z,100248.72
2024-05-09T02:08:21.714Z,100245.22
2024-05-09T02:10:49.862Z,100246.19
2024-05-09T02:13:17.169Z,100247.06
2024-05-09T02:15:44.184Z,100246.09
2024-05-09T02:18:11.565Z,100233.84
2024-05-09T02:20:40.742Z,100230.28
2024-05-09T02:23:08.607Z,100226.94
2024-05-09T02:25:35.611Z,100220.94
2024-05-09T02:28:02.314Z,100228.63
2024-05-09T02:30:38.274Z,100226.84
2024-05-09T02:33:09.259Z,100224.25
2024-05-09T02:35:37.145Z,100221.78
2024-05-09T02:38:04.543Z,100227.72
2024-05-09T02:40:37.508Z,100228.47
2024-05-09T02:43:07.300Z,100233.69
2024-05-09T02:45:34.303Z,100220.75
2024-05-09T02:48:01.946Z,100214.69
2024-05-09T02:50:37.138Z,100211.97
2024-05-09T02:53:10.044Z,100203.22
2024-05-09T02:55:40.877Z,100196.38
2024-05-09T02:58:08.256Z,100192.25
2024-05-09T03:00:39.435Z,100199.16
2024-05-09T03:03:10.781Z,100180.97
2024-05-09T03:05:40.078Z,100182.69
2024-05-09T03:08:07.972Z,100179.28
2024-05-09T03:10:37.035Z,100180.00
2024-05-09T03:13:09.323Z,100183.47
2024-05-09T03:15:36.399Z,100180.13
2024-05-09T03:18:04.712Z,100173.28
2024-05-09T03:20:34.924Z,100186.09
2024-05-09T03:23:04.081Z,100195.44
2024-05-09T03:25:31.007Z,100167.75
2024-05-09T03:27:57.664Z,100170.41
2024-05-09T03:30:36.661Z,100163.38
2024-05-09T03:33:17.687Z,100165.13
2024-05-09T03:35:46.071Z,100156.56
2024-05-09T03:38:13.026Z,100156.50
2024-05-09T03:40:46.948Z,100155.69
2024-05-09T03:43:14.453Z,100167.53
2024-05-09T03:45:42.492Z,100164.78
2024-05-09T03:48:09.408Z,100135.69
2024-05-09T03:50:37.131Z,100138.88
2024-05-09T03:53:04.708Z,100131.94
2024-05-09T03:55:31.606Z,100122.59
2024-05-09T03:57:58.509Z,100130.06
2024-05-09T04:00:31.220Z,100122.97
2024-05-09T04:03:06.250Z,100096.47
2024-05-09T04:05:34.991Z,100098.97
2024-05-09T04:08:01.994Z,100101.44
2024-05-09T04:10:33.498Z,100096.34
2024-05-09T04:13:01.869Z,100099.69
2024-05-09T04:15:28.766Z,100092.91
2024-05-09T04:17:55.977Z,100084.47
2024-05-09T04:20:33.335Z,100089.66
2024-05-09T04:23:06.193Z,100087.84
2024-05-09T04:25:33.318Z,100090.34
2024-05-09T04:28:00.043Z,100090.41
2024-05-09T04:30:36.002Z,100093.84
2024-05-09T04:33:07.764Z,100071.59
2024-05-09T04:35:36.064Z,100082.97
2024-05-09T04:38:03.590Z,100101.44
2024-05-09T04:40:34.317Z,100083.34
2024-05-09T04:43:07.179Z,100072.94
2024-05-09T04:45:34.305Z,100063.59
2024-05-09T04:48:01.787Z,100071.41
2024-05-09T04:50:35.648Z,100072.19
2024-05-09T04:53:06.367Z,100084.88
2024-05-09T04:55:33.900Z,100070.22
2024-05-09T04:58:01.135Z,100066.78
2024-05-09T05:00:35.574Z,100059.94
2024-05-09T05:03:07.364Z,100050.53
2024-05-09T05:05:40.206Z,100052.38
2024-05-09T05:08:17.740Z,100059.31
2024-05-09T05:10:46.111Z,100075.56
2024-05-09T05:13:18.491Z,100061.94
2024-05-09T05:15:46.793Z,100061.97
2024-05-09T05:18:15.448Z,100060.34
2024-05-09T05:20:43.065Z,100075.06
2024-05-09T05:23:18.778Z,100077.69
2024-05-09T05:25:48.088Z,100083.81
2024-05-09T05:28:18.008Z,100082.94
2024-05-09T05:30:45.715Z,100092.44
2024-05-09T05:33:15.266Z,100094.22
2024-05-09T05:35:42.482Z,100096.66
2024-05-09T05:38:10.784Z,100100.25
2024-05-09T05:40:38.940Z,100107.84
2024-05-09T05:43:11.037Z,100096.81
2024-05-09T05:45:38.595Z,100061.69
2024-05-09T05:48:07.016Z,100058.13
2024-05-09T05:50:37.281Z,100050.50
2024-05-09T05:53:09.975Z,100056.81
2024-05-09T05:55:39.191Z,100077.66
2024-05-09T05:58:09.216Z,100082.09
2024-05-09T06:00:39.034Z,100094.34
2024-05-09T06:03:07.907Z,100104.72
2024-05-09T06:05:36.961Z,100117.69
2024-05-09T06:08:04.212Z,100118.47
2024-05-09T06:10:37.831Z,100121.19
2024-05-09T06:13:07.409Z,100131.53
2024-05-09T06:15:34.358Z,100131.47
2024-05-09T06:18:01.679Z,100134.13
2024-05-09T06:20:35.555Z,100138.69
2024-05-09T06:23:08.453Z,100146.28
2024-05-09T06:25:36.331Z,100142.25
2024-05-09T06:28:03.294Z,100149.22
2024-05-09T06:30:37.535Z,100169.53
2024-05-09T06:33:08.860Z,100150.00
2024-05-09T06:35:37.216Z,100151.88
2024-05-09T06:38:04.707Z,100174.97
2024-05-09T06:40:37.804Z,100167.50
2024-05-09T06:43:18.310Z,100176.78
2024-05-09T06:45:48.255Z,100169.13
2024-05-09T06:48:19.184Z,100185.09
2024-05-09T06:50:46.678Z,100168.81
2024-05-09T06:53:14.788Z,100180.53
2024-05-09T06:55:41.621Z,100192.78
2024-05-09T06:58:09.285Z,100205.81
2024-05-09T07:00:39.752Z,100212.81
2024-05-09T07:03:13.990Z,100226.50
2024-05-09T07:05:43.383Z,100226.03
2024-05-09T07:08:10.417Z,100229.91
2024-05-09T07:10:37.685Z,100228.31
2024-05-09T07:13:12.561Z,100231.09
2024-05-09T07:15:40.664Z,100232.78
2024-05-09T07:18:18.743Z,100234.69
2024-05-09T07:20:47.619Z,100239.66
2024-05-09T07:23:15.534Z,100242.16
2024-05-09T07:25:43.146Z,100239.13
2024-05-09T07:28:14.276Z,100245.72
2024-05-09T07:30:41.725Z,100255.78
2024-05-09T07:33:08.821Z,100242.19
2024-05-09T07:35:35.913Z,100249.97
2024-05-09T07:38:02.764Z,100244.28
2024-05-09T07:40:35.765Z,100242.63
2024-05-09T07:43:13.237Z,100252.84
2024-05-09T07:45:49.904Z,100252.94
2024-05-09T07:53:39.013Z,100245.47
2024-05-09T07:56:09.371Z,100243.69
2024-05-09T07:58:37.024Z,100247.25
2024-05-09T08:01:03.955Z,100236.81
2024-05-09T08:03:31.451Z,100244.59
2024-05-09T08:05:58.175Z,100246.19
2024-05-09T08:08:25.539Z,100248.00
2024-05-09T08:10:52.285Z,100236.97
2024-05-09T08:13:19.061Z,100242.00
2024-05-09T08:15:45.916Z,100250.75
2024-05-09T08:18:12.810Z,100250.91
2024-05-09T08:20:41.175Z,100244.00
2024-05-09T08:23:08.201Z,100252.72
2024-05-09T08:25:34.838Z,100257.91
2024-05-09T08:28:03.618Z,100252.66
2024-05-09T08:30:36.348Z,100252.66
2024-05-09T08:33:06.292Z,100259.63
2024-05-09T08:35:34.553Z,100261.28
2024-05-09T08:38:03.055Z,100249.19
2024-05-09T08:40:35.645Z,100257.94
2024-05-09T08:43:10.078Z,100258.81
2024-05-09T08:45:42.630Z,100250.94
2024-05-09T08:48:12.882Z,100256.22
2024-05-09T08:50:41.446Z,100256.31
2024-05-09T08:53:09.032Z,100251.09
2024-05-09T08:55:40.516Z,100255.41
2024-05-09T08:58:14.274Z,100250.16
2024-05-09T09:00:43.119Z,100251.06
2024-05-09T09:03:15.145Z,100254.56
2024-05-09T09:05:51.581Z,100251.09
2024-05-09T09:08:18.780Z,100246.78
2024-05-09T09:10:47.668Z,100249.38
2024-05-09T09:13:23.856Z,100239.81
2024-05-09T09:15:50.920Z,100245.88
2024-05-09T09:18:18.711Z,100243.28
2024-05-09T09:20:45.849Z,100248.41
2024-05-09T09:23:12.613Z,100246.72
2024-05-09T09:25:40.516Z,100240.63
2024-05-09T09:28:08.352Z,100245.84
2024-05-09T09:30:38.883Z,100240.66
2024-05-09T09:33:06.863Z,100241.50
2024-05-09T09:35:35.856Z,100241.56
2024-05-09T09:38:04.435Z,100236.38
2024-05-09T09:40:37.207Z,100239.78
2024-05-09T09:43:14.862Z,100242.34
2024-05-09T09:45:44.167Z,100242.34
2024-05-09T09:48:13.741Z,100244.09
2024-05-09T09:50:42.178Z,100235.34
2024-05-09T09:53:09.983Z,100236.31
2024-05-09T09:55:37.580Z,100238.91
2024-05-09T09:58:06.401Z,100240.59
2024-05-09T10:00:34.539Z,100237.19
2024-05-09T10:03:02.268Z,100231.84
2024-05-09T10:05:30.156Z,100224.72
2024-05-09T10:07:58.550Z,100230.09
2024-05-09T10:10:32.164Z,100228.22
2024-05-09T10:13:09.031Z,100221.28
2024-05-09T10:15:52.635Z,100223.75
2024-05-09T10:18:28.199Z,100215.94
2024-05-09T10:20:57.469Z,100222.22
2024-05-09T10:23:29.090Z,100220.44
2024-05-09T10:26:04.317Z,100217.53
2024-05-09T10:28:32.900Z,100217.34
2024-05-09T10:31:11.136Z,100213.94
2024-05-09T10:33:50.325Z,100206.94
2024-05-09T10:36:23.007Z,100207.31
2024-05-09T10:38:51.530Z,100201.09
2024-05-09T10:41:20.523Z,100213.38
2024-05-09T10:43:47.845Z,100205.31
2024-05-09T10:46:15.227Z,100189.00
2024-05-09T10:48:44.304Z,100197.59
2024-05-09T10:51:11.764Z,100195.81
2024-05-09T10:53:45.918Z,100186.72
2024-05-09T10:56:15.438Z,100198.84
2024-05-09T10:58:42.204Z,100192.22
2024-05-09T11:01:09.991Z,100189.69
2024-05-09T11:03:37.890Z,100184.97
2024-05-09T11:06:06.775Z,100188.25
2024-05-09T11:08:35.952Z,100187.81
2024-05-09T11:11:06.755Z,100177.16
2024-05-09T11:13:36.974Z,100179.56
2024-05-09T11:16:06.628Z,100166.91
2024-05-09T11:18:37.920Z,100163.19
2024-05-09T11:21:12.290Z,100164.59
2024-05-09T11:23:39.297Z,100152.75
2024-05-09T11:26:07.237Z,100148.22
2024-05-09T11:28:33.966Z,100149.72
2024-05-09T11:31:09.461Z,100157.13
2024-05-09T11:33:38.953Z,100148.06
2024-05-09T11:36:07.600Z,100134.19
2024-05-09T11:38:34.559Z,100142.53
2024-05-09T11:41:02.651Z,100132.91
2024-05-09T11:43:29.449Z,100142.75
2024-05-09T11:45:59.341Z,100126.97
2024-05-09T11:48:26.786Z,100122.50
2024-05-09T11:50:55.545Z,100116.34
2024-05-09T11:53:22.465Z,100116.78
2024-05-09T11:55:49.225Z,100120.97
2024-05-09T11:58:18.104Z,100117.28
2024-05-09T12:00:46.117Z,100118.09
2024-05-09T12:03:13.063Z,100110.56
2024-05-09T12:05:39.862Z,100105.75
2024-05-09T12:08:07.280Z,100103.69
2024-05-09T12:10:36.126Z,100114.88
2024-05-09T12:13:06.183Z,100104.59
2024-05-09T12:15:37.435Z,100107.47
2024-05-09T12:18:05.910Z,100102.19
2024-05-09T12:20:37.534Z,100097.00
2024-05-09T12:23:06.949Z,100101.19
2024-05-09T12:25:34.914Z,100091.19
2024-05-09T12:28:01.943Z,100081.84
2024-05-09T12:30:36.149Z,100077.91
2024-05-09T12:33:08.400Z,100089.72
2024-05-09T12:35:35.535Z,100088.66
2024-05-09T12:38:02.530Z,100085.44
2024-05-09T12:40:35.832Z,100079.44
2024-05-09T12:43:09.154Z,100081.47
2024-05-09T12:45:37.503Z,100082.41
2024-05-09T12:48:07.446Z,100077.78
2024-05-09T12:50:35.077Z,100061.53
2024-05-09T12:53:03.159Z,100067.88
2024-05-09T12:55:37.313Z,100054.63
2024-05-09T12:58:12.029Z,100067.34
2024-05-09T13:00:39.228Z,100067.56
2024-05-09T13:03:06.349Z,100065.78
2024-05-09T13:05:33.380Z,100049.56
2024-05-09T13:08:00.981Z,100047.91
2024-05-09T13:10:32.150Z,100061.22
2024-05-09T13:13:01.523Z,100053.75
2024-05-09T13:15:30.244Z,100043.78
2024-05-09T13:18:00.451Z,100048.00
2024-05-09T13:20:33.553Z,100031.06
2024-05-09T13:23:07.297Z,100031.72
2024-05-09T13:25:35.291Z,100034.34
2024-05-09T13:28:02.987Z,100029.63
2024-05-09T13:30:38.501Z,100032.47
2024-05-09T13:33:08.982Z,100035.97
2024-05-09T13:35:36.278Z,100034.84
2024-05-09T13:38:04.165Z,100030.44
2024-05-09T13:40:34.520Z,100027.50
2024-05-09T13:43:06.653Z,100016.31
2024-05-09T13:45:34.382Z,100011.28
2024-05-09T13:48:02.552Z,100004.53
2024-05-09T13:50:35.739Z,100018.97
2024-05-09T13:53:05.803Z,99988.63
2024-05-09T13:55:33.592Z,99990.03
2024-05-09T13:58:00.903Z,99987.63
2024-05-09T14:00:41.328Z,99986.88
2024-05-09T14:03:14.582Z,99978.19
2024-05-09T14:05:41.841Z,99981.84
2024-05-09T14:08:08.948Z,99975.91
2024-05-09T14:10:35.959Z,99963.09
2024-05-09T14:13:02.934Z,99964.38
2024-05-09T14:15:29.682Z,99971.31
2024-05-09T14:17:56.517Z,99963.19
2024-05-09T14:20:30.412Z,99970.84
2024-05-09T14:22:59.787Z,99963.66
2024-05-09T14:25:31.921Z,99957.13
2024-05-09T14:27:59.012Z,99956.66
2024-05-09T14:30:34.504Z,99949.97
2024-05-09T14:33:05.727Z,99942.94
2024-05-09T14:35:33.189Z,99944.34
2024-05-09T14:38:00.050Z,99937.00
2024-05-09T14:40:37.162Z,99936.28
2024-05-09T14:43:08.609Z,99935.50
2024-05-09T14:45:35.745Z,99940.28
2024-05-09T14:48:03.350Z,99929.97
2024-05-09T14:50:36.054Z,99934.88
2024-05-09T14:53:07.189Z,99921.00
2024-05-09T14:55:39.267Z,99927.75
2024-05-09T14:58:07.502Z,99908.88
2024-05-09T15:00:46.094Z,99906.09
2024-05-09T15:03:17.066Z,99908.00
2024-05-09T15:05:44.959Z,99912.28
2024-05-09T15:08:11.693Z,99897.06
2024-05-09T15:10:39.081Z,99895.13
2024-05-09T15:13:08.091Z,99889.59
2024-05-09T15:15:36.824Z,99890.25
2024-05-09T15:18:07.157Z,99886.25
2024-05-09T15:20:36.737Z,99889.38
2024-05-09T15:23:06.540Z,99892.25
2024-05-09T15:25:36.648Z,99891.03
2024-05-09T15:28:04.651Z,99880.66
2024-05-09T15:30:33.588Z,99886.53
2024-05-09T15:33:05.337Z,99871.09
2024-05-09T15:35:33.511Z,99877.72
2024-05-09T15:38:02.772Z,99876.50
2024-05-09T15:40:37.229Z,99871.47
2024-05-09T15:43:07.920Z,99871.22
2024-05-09T15:45:35.655Z,99868.41
2024-05-09T15:48:03.333Z,99863.34
2024-05-09T15:50:37.204Z,99864.53
2024-05-09T15:53:08.726Z,99855.75
2024-05-09T15:55:36.342Z,99857.09
2024-05-09T15:58:04.204Z,99858.28
2024-05-09T16:03:01.281Z,99861.88
2024-05-09T16:05:28.142Z,99853.50
2024-05-09T16:07:55.188Z,99855.69
2024-05-09T16:10:26.059Z,99843.44
2024-05-09T16:12:59.208Z,99840.03
2024-05-09T16:15:26.087Z,99846.63
2024-05-09T16:17:53.463Z,99848.81
2024-05-09T16:20:33.227Z,99835.38
2024-05-09T16:23:05.189Z,99841.63
2024-05-09T16:25:31.840Z,99834.09
2024-05-09T16:27:58.589Z,99833.22
2024-05-09T16:30:32.012Z,99827.56
2024-05-09T16:33:02.828Z,99836.84
2024-05-09T16:35:29.738Z,99829.00
2024-05-09T16:37:56.446Z,99831.31
2024-05-09T16:40:30.343Z,99831.06
2024-05-09T16:43:04.428Z,99817.16
2024-05-09T16:45:31.628Z,99815.53
2024-05-09T16:47:59.721Z,99804.97
2024-05-09T16:50:32.317Z,99815.69
2024-05-09T16:53:01.223Z,99826.41
2024-05-09T16:55:28.023Z,99812.53
2024-05-09T16:57:56.314Z,99807.44
2024-05-09T17:00:34.815Z,99808.53
2024-05-09T17:03:07.635Z,99807.41
2024-05-09T17:05:35.389Z,99801.88
2024-05-09T17:08:02.792Z,99809.81
2024-05-09T17:10:33.337Z,99803.91
2024-05-09T17:13:06.479Z,99806.34
2024-05-09T17:15:50.081Z,99790.75
2024-05-09T17:18:17.133Z,99792.91
2024-05-09T17:20:43.824Z,99794.63
2024-05-09T17:23:13.978Z,99783.22
2024-05-09T17:25:41.564Z,99789.50
2024-05-09T17:28:09.550Z,99785.53
2024-05-09T17:30:38.473Z,99790.56
2024-05-09T17:33:08.783Z,99791.47
2024-05-09T17:35:36.485Z,99793.59
2024-05-09T17:38:04.282Z,99785.31
2024-05-09T17:40:34.925Z,99789.28
2024-05-09T17:43:05.039Z,99788.63
2024-05-09T17:45:32.632Z,99791.00
2024-05-09T17:48:00.088Z,99783.31
2024-05-09T17:50:35.127Z,99792.41
2024-05-09T17:53:04.362Z,99791.53
2024-05-09T17:55:31.164Z,99798.53
2024-05-09T17:57:58.222Z,99797.66
2024-05-09T18:00:36.371Z,99796.34
2024-05-09T18:03:07.043Z,99798.78
2024-05-09T18:05:35.967Z,99795.09
2024-05-09T18:08:03.598Z,99800.34
2024-05-09T18:10:36.325Z,99794.38
2024-05-09T18:13:06.333Z,99792.28
2024-05-09T18:15:33.667Z,99802.66
2024-05-09T18:18:01.588Z,99805.13
2024-05-09T18:20:37.839Z,99802.53
2024-05-09T18:23:10.875Z,99812.34
2024-05-09T18:25:37.880Z,99813.38
2024-05-09T18:28:05.209Z,99816.19
2024-05-09T18:30:35.567Z,99822.59
2024-05-09T18:33:08.171Z,99814.16
2024-05-09T18:35:36.336Z,99811.44
2024-05-09T18:38:05.648Z,99826.56
2024-05-09T18:40:36.069Z,99830.59
2024-05-09T18:43:06.854Z,99828.38
2024-05-09T18:45:35.633Z,99829.78
2024-05-09T18:48:03.962Z,99827.34
2024-05-09T18:50:35.832Z,99816.78
2024-05-09T18:53:06.264Z,99823.16
2024-05-09T18:55:33.280Z,99821.47
2024-05-09T18:58:00.360Z,99823.00
2024-05-09T19:00:34.333Z,99813.97
2024-05-09T19:03:06.193Z,99822.16
2024-05-09T19:05:35.912Z,99818.28
2024-05-09T19:08:03.576Z,99826.97
2024-05-09T19:10:34.417Z,99829.31
2024-05-09T19:13:07.299Z,99829.78
2024-05-09T19:15:38.313Z,99836.53
2024-05-09T19:18:06.051Z,99839.84
2024-05-09T19:20:35.580Z,99838.34
2024-05-09T19:23:04.633Z,99831.34
2024-05-09T19:25:32.078Z,99842.94
2024-05-09T19:28:00.467Z,99837.94
2024-05-09T19:30:36.656Z,99848.00
2024-05-09T19:33:07.595Z,99851.00
2024-05-09T19:35:35.030Z,99848.78
2024-05-09T19:38:02.248Z,99854.13
2024-05-09T19:40:32.157Z,99855.88
2024-05-09T19:43:05.802Z,99863.13
2024-05-09T19:45:35.156Z,99859.84
2024-05-09T19:48:03.522Z,99856.56
2024-05-09T19:50:37.341Z,99863.03
2024-05-09T19:53:10.117Z,99865.75
2024-05-09T19:55:37.291Z,99865.13
2024-05-09T19:58:05.635Z,99871.47
2024-05-09T20:00:40.310Z,99869.69
2024-05-09T20:03:09.975Z,99867.09
2024-05-09T20:05:39.278Z,99866.19
2024-05-09T20:08:06.885Z,99872.13
2024-05-09T20:10:36.512Z,99877.31
2024-05-09T20:13:05.442Z,99880.00
2024-05-09T20:15:35.119Z,99880.06
2024-05-09T20:18:03.178Z,99883.06
2024-05-09T20:20:37.386Z,99890.28
2024-05-09T20:23:08.630Z,99896.44
2024-05-09T20:25:35.411Z,99891.66
2024-05-09T20:28:02.394Z,99905.75
2024-05-09T20:30:32.798Z,99904.00
2024-05-09T20:33:03.069Z,99897.13
2024-05-09T20:35:34.008Z,99908.47
2024-05-09T20:38:01.947Z,99905.09
2024-05-09T20:40:33.916Z,99904.31
2024-05-09T20:43:04.455Z,99908.06
2024-05-09T20:45:31.308Z,99915.16
2024-05-09T20:47:58.321Z,99919.56
2024-05-09T20:50:35.595Z,99917.91
2024-05-09T20:53:14.608Z,99928.50
2024-05-09T20:55:45.365Z,99925.09
2024-05-09T20:58:12.769Z,99926.16
2024-05-09T21:00:43.804Z,99925.59
2024-05-09T21:03:14.458Z,99924.66
2024-05-09T21:05:42.819Z,99922.13
2024-05-09T21:08:09.967Z,99916.88
2024-05-09T21:10:37.309Z,99922.84
2024-05-09T21:13:05.119Z,99922.09
2024-05-09T21:15:32.551Z,99929.78
2024-05-09T21:17:59.560Z,99928.03
2024-05-09T21:20:31.734Z,99928.28
2024-05-09T21:23:00.653Z,99926.47
2024-05-09T21:25:27.655Z,99924.97
2024-05-09T21:27:54.610Z,99925.84
2024-05-09T21:30:32.056Z,99934.47
2024-05-09T21:33:13.732Z,99931.06
2024-05-09T21:35:43.429Z,99931.03
2024-05-09T21:38:11.004Z,99921.56
2024-05-09T21:40:38.596Z,99931.41
2024-05-09T21:43:07.716Z,99930.72
2024-05-09T21:45:35.096Z,99928.00
2024-05-09T21:48:06.400Z,99928.00
2024-05-09T21:50:39.794Z,99928.00
2024-05-09T21:53:09.224Z,99925.53
2024-05-09T21:55:35.975Z,99923.81
2024-05-09T21:58:03.140Z,99925.72
2024-05-09T22:00:36.144Z,99928.56
2024-05-09T22:03:09.494Z,99915.38
2024-05-09T22:05:38.022Z,99917.19
2024-05-09T22:08:05.377Z,99915.22
2024-05-09T22:10:34.988Z,99917.09
2024-05-09T22:13:04.877Z,99914.56
2024-05-09T22:15:35.737Z,99919.78
2024-05-09T22:18:03.467Z,99922.50
2024-05-09T22:20:36.701Z,99917.28
2024-05-09T22:23:05.650Z,99920.75
2024-05-09T22:25:33.024Z,99922.50
2024-05-09T22:28:01.482Z,99919.97
2024-05-09T22:30:35.748Z,99922.53
2024-05-09T22:33:10.192Z,99922.50
2024-05-09T22:35:38.910Z,99924.31
2024-05-09T22:38:05.967Z,99920.00
2024-05-09T22:40:42.830Z,99920.91
2024-05-09T22:43:18.371Z,99911.31
2024-05-09T22:45:46.249Z,99920.06
2024-05-09T22:48:13.302Z,99923.50
2024-05-09T22:50:40.873Z,99915.84
2024-05-09T22:53:07.587Z,99920.31
2024-05-09T22:55:34.425Z,99920.41
2024-05-09T22:58:01.278Z,99918.69
2024-05-09T23:00:31.765Z,99922.25
2024-05-09T23:03:02.622Z,99915.41
2024-05-09T23:05:30.617Z,99923.28
2024-05-09T23:07:57.497Z,99920.63
2024-05-09T23:10:32.036Z,99923.19
2024-05-09T23:13:03.476Z,99922.31
2024-05-09T23:15:30.475Z,99921.47
2024-05-09T23:17:57.843Z,99924.94
2024-05-09T23:22:54.404Z,99924.94
2024-05-09T23:25:21.080Z,99924.94
2024-05-09T23:27:47.906Z,99919.75
2024-05-09T23:30:28.260Z,99920.47
2024-05-09T23:33:01.115Z,99918.75
2024-05-09T23:35:28.019Z,99922.06
2024-05-09T23:37:54.672Z,99918.69
2024-05-09T23:40:23.342Z,99923.91
2024-05-09T23:42:50.667Z,99916.91
2024-05-09T23:45:17.323Z,99922.25
2024-05-09T23:47:43.996Z,99916.19
2024-05-09T23:50:16.841Z,99912.81
2024-05-09T23:52:50.440Z,99912.06
2024-05-09T23:55:17.364Z,99915.59
2024-05-09T23:57:44.206Z,99906.97
